createdAt,value
2019-05-23T00:00:59.670Z,95.20
2019-05-23T00:04:17.831Z,95.00
2019-05-23T00:07:29.652Z,95.40
2019-05-23T00:10:35.743Z,95.40
2019-05-23T00:13:37.025Z,95.30
2019-05-23T00:16:26.778Z,95.20
2019-05-23T00:19:13.764Z,95.20
2019-05-23T00:21:59.241Z,95.10
2019-05-23T00:24:47.244Z,95.10
2019-05-23T00:27:33.463Z,95.20
2019-05-23T00:30:20.219Z,95.10
2019-05-23T00:33:07.038Z,95.40
2019-05-23T00:35:52.741Z,95.40
2019-05-23T00:38:37.905Z,95.50
2019-05-23T00:41:24.830Z,95.50
2019-05-23T00:44:11.210Z,95.60
2019-05-23T00:46:58.372Z,95.60
2019-05-23T00:49:43.202Z,95.30
2019-05-23T00:52:28.407Z,95.50
2019-05-23T00:55:13.973Z,95.40
2019-05-23T00:57:59.642Z,95.40
2019-05-23T01:00:44.877Z,95.20
2019-05-23T01:03:30.520Z,95.10
2019-05-23T01:06:17.581Z,95.30
2019-05-23T01:09:06.142Z,95.40
2019-05-23T01:11:50.969Z,95.60
2019-05-23T01:14:36.345Z,95.20
2019-05-23T01:17:24.707Z,95.30
2019-05-23T01:20:15.404Z,95.50
2019-05-23T01:23:01.579Z,95.40
2019-05-23T01:25:46.722Z,95.70
2019-05-23T01:28:31.732Z,95.60
2019-05-23T01:31:24.302Z,95.70
2019-05-23T01:34:11.056Z,95.70
2019-05-23T01:36:57.493Z,95.80
2019-05-23T01:39:43.937Z,95.80
2019-05-23T01:42:30.126Z,95.60
2019-05-23T01:45:15.880Z,95.70
2019-05-23T01:48:01.270Z,95.50
2019-05-23T01:50:46.746Z,95.70
2019-05-23T01:53:32.030Z,95.70
2019-05-23T01:56:17.682Z,95.90
2019-05-23T01:59:03.286Z,95.70
2019-05-23T02:01:48.683Z,96.00
2019-05-23T02:04:33.563Z,95.60
2019-05-23T02:07:18.925Z,95.50
2019-05-23T02:10:10.296Z,95.50
2019-05-23T02:12:56.013Z,95.50
2019-05-23T02:15:41.477Z,95.70
2019-05-23T02:18:27.349Z,95.70
2019-05-23T02:21:14.601Z,95.80
2019-05-23T02:24:00.061Z,95.70
2019-05-23T02:26:46.098Z,95.70
2019-05-23T02:29:31.710Z,95.50
2019-05-23T02:32:17.013Z,95.60
2019-05-23T02:35:06.613Z,95.70
2019-05-23T02:37:53.744Z,96.00
2019-05-23T02:40:40.770Z,95.70
2019-05-23T02:43:28.080Z,95.50
2019-05-23T02:46:18.597Z,95.50
2019-05-23T02:49:06.109Z,95.50
2019-05-23T02:51:53.059Z,95.50
2019-05-23T02:54:38.273Z,95.50
2019-05-23T02:57:24.623Z,95.80
2019-05-23T03:00:52.097Z,96.10
2019-05-23T03:03:25.111Z,96.20
2019-05-23T03:06:11.763Z,95.70
2019-05-23T03:08:58.954Z,95.70
2019-05-23T03:11:48.282Z,95.60
2019-05-23T03:14:33.583Z,95.50
2019-05-23T03:17:19.944Z,95.50
2019-05-23T03:20:07.368Z,95.70
2019-05-23T03:22:56.448Z,95.60
2019-05-23T03:25:45.067Z,95.70
2019-05-23T03:28:34.166Z,95.60
2019-05-23T03:31:29.797Z,95.70
2019-05-23T03:34:12.554Z,95.40
2019-05-23T03:36:57.999Z,95.30
2019-05-23T03:39:42.977Z,95.40
2019-05-23T03:42:28.410Z,95.90
2019-05-23T03:45:14.403Z,95.60
2019-05-23T03:48:01.321Z,95.40
2019-05-23T03:50:46.419Z,95.80
2019-05-23T03:53:33.554Z,95.70
2019-05-23T03:56:19.585Z,95.50
2019-05-23T03:59:06.639Z,95.90
2019-05-23T04:01:53.574Z,95.30
2019-05-23T04:04:38.951Z,95.50
2019-05-23T04:07:24.248Z,94.90
2019-05-23T04:10:10.269Z,95.20
2019-05-23T04:12:55.192Z,95.60
2019-05-23T04:15:40.247Z,95.40
2019-05-23T04:18:25.313Z,95.50
2019-05-23T04:21:10.019Z,95.30
2019-05-23T04:23:55.472Z,95.10
2019-05-23T04:26:40.533Z,95.50
2019-05-23T04:29:26.815Z,95.60
2019-05-23T04:32:12.651Z,95.60
2019-05-23T04:34:58.071Z,96.20
2019-05-23T04:37:43.301Z,96.00
2019-05-23T04:40:29.278Z,96.30
2019-05-23T04:43:14.966Z,96.10
2019-05-23T04:46:00.333Z,96.10
2019-05-23T04:48:45.086Z,96.10
2019-05-23T04:51:30.244Z,95.70
2019-05-23T04:54:15.117Z,95.50
2019-05-23T04:57:01.462Z,95.40
2019-05-23T04:59:47.612Z,95.20
2019-05-23T05:02:32.986Z,95.90
2019-05-23T05:05:20.189Z,95.70
2019-05-23T05:08:05.402Z,95.30
2019-05-23T05:10:50.776Z,95.10
2019-05-23T05:13:36.022Z,95.30
2019-05-23T05:16:20.729Z,95.00
2019-05-23T05:19:05.529Z,95.00
2019-05-23T05:21:50.881Z,94.60
2019-05-23T05:24:40.094Z,94.90
2019-05-23T05:27:23.778Z,94.70
2019-05-23T05:30:09.505Z,95.20
2019-05-23T05:32:56.088Z,95.00
2019-05-23T05:35:41.433Z,94.60
2019-05-23T05:38:28.553Z,94.50
2019-05-23T05:41:13.025Z,94.00
2019-05-23T05:43:58.239Z,94.10
2019-05-23T05:46:43.588Z,94.30
2019-05-23T05:49:28.647Z,93.90
2019-05-23T05:52:13.901Z,94.00
2019-05-23T05:55:00.911Z,93.80
2019-05-23T05:57:46.081Z,92.50
2019-05-23T06:00:38.468Z,91.60
2019-05-23T06:03:24.227Z,92.10
2019-05-23T06:06:13.863Z,92.70
2019-05-23T06:09:00.930Z,91.30
2019-05-23T06:11:46.181Z,91.10
2019-05-23T06:14:31.881Z,91.50
2019-05-23T06:17:20.068Z,91.60
2019-05-23T06:20:05.875Z,91.00
2019-05-23T06:23:04.731Z,90.70
2019-05-23T06:25:49.735Z,90.20
2019-05-23T06:28:35.858Z,89.80
2019-05-23T06:31:20.821Z,90.00
2019-05-23T06:34:06.028Z,88.60
2019-05-23T06:36:51.326Z,88.10
2019-05-23T06:39:37.963Z,88.60
2019-05-23T06:42:23.042Z,87.80
2019-05-23T06:45:09.715Z,88.40
2019-05-23T06:47:54.770Z,87.80
2019-05-23T06:50:39.924Z,88.40
2019-05-23T06:53:25.393Z,87.40
2019-05-23T06:56:12.169Z,87.40
2019-05-23T06:58:57.221Z,86.50
2019-05-23T07:01:41.931Z,85.90
2019-05-23T07:04:28.382Z,85.60
2019-05-23T07:07:14.042Z,83.00
2019-05-23T07:09:59.425Z,84.50
2019-05-23T07:12:44.797Z,83.60
2019-05-23T07:15:30.097Z,82.40
2019-05-23T07:18:15.525Z,81.30
2019-05-23T07:21:00.998Z,79.60
2019-05-23T07:23:46.210Z,78.70
2019-05-23T07:26:31.766Z,78.40
2019-05-23T07:29:16.628Z,77.60
2019-05-23T07:32:03.333Z,70.20
2019-05-23T07:34:48.194Z,65.90
2019-05-23T07:37:32.806Z,67.40
2019-05-23T07:40:18.105Z,63.60
2019-05-23T07:43:04.217Z,63.70
2019-05-23T07:46:02.153Z,62.90
2019-05-23T07:48:47.644Z,62.50
2019-05-23T07:51:33.142Z,63.10
2019-05-23T07:54:25.606Z,63.80
2019-05-23T07:57:12.925Z,61.50
2019-05-23T07:59:58.107Z,62.60
2019-05-23T08:02:44.456Z,60.90
2019-05-23T08:05:29.229Z,62.50
2019-05-23T08:08:15.302Z,61.80
2019-05-23T08:11:00.941Z,61.20
2019-05-23T08:13:47.245Z,60.60
2019-05-23T08:16:32.657Z,59.40
2019-05-23T08:19:19.669Z,61.50
2019-05-23T08:22:04.430Z,58.10
2019-05-23T08:24:51.279Z,58.70
2019-05-23T08:27:37.713Z,59.00
2019-05-23T08:30:24.106Z,56.00
2019-05-23T08:33:10.785Z,56.70
2019-05-23T08:35:57.469Z,56.60
2019-05-23T08:38:42.278Z,55.20
2019-05-23T08:41:28.146Z,57.90
2019-05-23T08:44:13.770Z,58.20
2019-05-23T08:46:59.457Z,58.90
2019-05-23T08:49:44.760Z,52.60
2019-05-23T08:52:29.857Z,56.30
2019-05-23T08:55:17.981Z,57.00
2019-05-23T08:58:04.087Z,53.50
2019-05-23T09:00:49.397Z,53.40
2019-05-23T09:03:34.580Z,54.20
2019-05-23T09:06:19.505Z,53.40
2019-05-23T09:09:27.536Z,51.10
2019-05-23T09:11:54.856Z,53.10
2019-05-23T09:14:40.294Z,54.80
2019-05-23T09:17:26.381Z,54.90
2019-05-23T09:20:12.387Z,48.20
2019-05-23T09:22:57.361Z,50.20
2019-05-23T09:25:42.114Z,51.50
2019-05-23T09:28:27.086Z,51.40
2019-05-23T09:31:13.022Z,50.00
2019-05-23T09:33:58.172Z,51.40
2019-05-23T09:36:43.397Z,52.00
2019-05-23T09:39:30.375Z,50.70
2019-05-23T09:42:15.415Z,47.40
2019-05-23T09:45:00.450Z,50.90
2019-05-23T09:47:45.127Z,52.50
2019-05-23T09:50:31.871Z,51.30
2019-05-23T09:53:17.740Z,51.10
2019-05-23T09:56:03.235Z,50.80
2019-05-23T09:58:48.361Z,50.80
2019-05-23T10:01:33.957Z,50.50
2019-05-23T10:04:19.135Z,48.90
2019-05-23T10:07:03.940Z,49.50
2019-05-23T10:09:48.723Z,50.80
2019-05-23T10:12:34.098Z,47.30
2019-05-23T10:15:36.917Z,47.10
2019-05-23T10:18:22.611Z,45.50
2019-05-23T10:21:07.516Z,48.40
2019-05-23T10:23:52.510Z,40.30
2019-05-23T10:26:37.114Z,43.00
2019-05-23T10:29:22.029Z,47.70
2019-05-23T10:32:08.918Z,45.70
2019-05-23T10:34:54.052Z,47.00
2019-05-23T10:37:39.403Z,49.30
2019-05-23T10:40:25.539Z,47.50
2019-05-23T10:43:11.399Z,47.80
2019-05-23T10:45:56.856Z,47.90
2019-05-23T10:48:41.580Z,46.90
2019-05-23T10:51:27.114Z,44.80
2019-05-23T10:54:12.946Z,46.40
2019-05-23T10:56:58.468Z,45.30
2019-05-23T10:59:43.771Z,45.90
2019-05-23T11:02:29.008Z,43.90
2019-05-23T11:05:15.029Z,45.50
2019-05-23T11:08:01.790Z,47.60
2019-05-23T11:10:46.836Z,45.60
2019-05-23T11:13:33.276Z,43.20
2019-05-23T11:16:18.342Z,43.60
2019-05-23T11:19:04.758Z,45.10
2019-05-23T11:21:51.018Z,44.80
2019-05-23T11:24:36.104Z,43.20
2019-05-23T11:27:21.979Z,45.50
2019-05-23T11:30:09.095Z,43.90
2019-05-23T11:32:54.232Z,43.50
2019-05-23T11:35:39.537Z,42.40
2019-05-23T11:38:26.366Z,39.40
2019-05-23T11:41:11.298Z,38.50
2019-05-23T11:43:56.101Z,35.20
2019-05-23T11:46:41.654Z,35.50
2019-05-23T11:49:26.678Z,36.00
2019-05-23T11:52:11.810Z,34.10
2019-05-23T11:54:56.750Z,36.60
2019-05-23T11:57:41.597Z,33.20
2019-05-23T12:00:53.365Z,34.20
2019-05-23T12:03:38.745Z,33.70
2019-05-23T12:06:26.534Z,34.50
2019-05-23T12:09:12.571Z,33.70
2019-05-23T12:11:57.442Z,34.50
2019-05-23T12:14:42.054Z,32.90
2019-05-23T12:17:29.614Z,32.20
2019-05-23T12:20:15.197Z,33.60
2019-05-23T12:23:00.303Z,33.60
2019-05-23T12:25:46.507Z,33.80
2019-05-23T12:28:31.309Z,33.20
2019-05-23T12:31:16.715Z,32.20
2019-05-23T12:34:02.241Z,32.50
2019-05-23T12:36:47.396Z,32.10
2019-05-23T12:39:31.965Z,34.30
2019-05-23T12:42:16.983Z,33.70
2019-05-23T12:45:05.239Z,31.30
2019-05-23T12:48:07.452Z,31.50
2019-05-23T12:51:00.795Z,32.70
2019-05-23T12:53:45.466Z,31.80
2019-05-23T12:56:30.358Z,31.70
2019-05-23T12:59:16.263Z,32.20
2019-05-23T13:02:01.873Z,30.90
2019-05-23T13:04:47.717Z,31.60
2019-05-23T13:07:36.675Z,32.90
2019-05-23T13:10:24.312Z,31.10
2019-05-23T13:13:07.704Z,32.20
2019-05-23T13:15:52.486Z,32.60
2019-05-23T13:18:37.262Z,31.20
2019-05-23T13:21:21.975Z,30.40
2019-05-23T13:24:06.818Z,29.80
2019-05-23T13:26:51.752Z,31.90
2019-05-23T13:29:36.924Z,30.90
2019-05-23T13:32:22.186Z,31.10
2019-05-23T13:35:07.550Z,29.80
2019-05-23T13:37:54.513Z,31.60
2019-05-23T13:40:40.279Z,31.20
2019-05-23T13:43:25.796Z,32.80
2019-05-23T13:46:10.773Z,30.50
2019-05-23T13:48:55.498Z,29.70
2019-05-23T13:51:40.954Z,31.30
2019-05-23T13:54:26.423Z,30.40
2019-05-23T13:57:12.287Z,30.50
2019-05-23T13:59:58.051Z,30.60
2019-05-23T14:02:43.332Z,30.40
2019-05-23T14:05:28.735Z,31.80
2019-05-23T14:08:13.936Z,31.10
2019-05-23T14:10:58.802Z,30.70
2019-05-23T14:13:44.675Z,31.20
2019-05-23T14:16:32.719Z,30.90
2019-05-23T14:19:18.011Z,32.40
2019-05-23T14:22:04.122Z,31.40
2019-05-23T14:24:49.034Z,30.50
2019-05-23T14:27:42.111Z,30.30
2019-05-23T14:30:29.268Z,31.20
2019-05-23T14:33:21.905Z,31.10
2019-05-23T14:36:09.189Z,33.00
2019-05-23T14:38:56.338Z,31.60
2019-05-23T14:42:01.350Z,31.50
2019-05-23T14:44:46.232Z,31.00
2019-05-23T14:47:37.253Z,30.60
2019-05-23T14:50:27.226Z,30.50
2019-05-23T14:53:14.651Z,29.60
2019-05-23T14:55:59.666Z,31.10
2019-05-23T14:58:45.125Z,31.20
2019-05-23T15:01:31.970Z,32.10
2019-05-23T15:04:18.385Z,32.10
2019-05-23T15:07:03.921Z,30.40
2019-05-23T15:09:48.752Z,30.40
2019-05-23T15:12:33.877Z,31.70
2019-05-23T15:15:19.459Z,31.50
2019-05-23T15:18:05.157Z,31.00
2019-05-23T15:20:50.219Z,31.30
2019-05-23T15:23:35.361Z,31.20
2019-05-23T15:26:23.477Z,31.40
2019-05-23T15:29:07.611Z,31.00
2019-05-23T15:32:02.526Z,31.20
2019-05-23T15:34:39.689Z,31.60
2019-05-23T15:37:24.652Z,31.70
2019-05-23T15:40:10.337Z,32.00
2019-05-23T15:42:55.156Z,31.50
2019-05-23T15:45:40.180Z,30.70
2019-05-23T15:48:25.476Z,30.50
2019-05-23T15:51:12.127Z,32.90
2019-05-23T15:53:59.151Z,31.70
2019-05-23T15:56:49.121Z,31.20
2019-05-23T15:59:50.939Z,31.30
2019-05-23T16:02:41.346Z,31.10
2019-05-23T16:05:28.580Z,32.50
2019-05-23T16:08:13.739Z,31.70
2019-05-23T16:10:59.224Z,32.70
2019-05-23T16:13:44.251Z,32.10
2019-05-23T16:16:30.043Z,31.90
2019-05-23T16:19:15.436Z,31.60
2019-05-23T16:22:00.843Z,32.10
2019-05-23T16:24:46.589Z,31.80
2019-05-23T16:27:31.584Z,31.70
2019-05-23T16:30:17.037Z,32.90
2019-05-23T16:33:02.109Z,31.40
2019-05-23T16:35:48.331Z,32.00
2019-05-23T16:38:33.247Z,32.70
2019-05-23T16:41:18.194Z,31.80
2019-05-23T16:44:03.627Z,31.00
2019-05-23T16:46:49.025Z,33.10
2019-05-23T16:49:34.079Z,31.70
2019-05-23T16:52:19.158Z,32.20
2019-05-23T16:55:06.795Z,33.30
2019-05-23T16:57:56.483Z,33.70
2019-05-23T17:00:52.959Z,32.20
2019-05-23T17:03:40.404Z,33.80
2019-05-23T17:06:51.624Z,32.70
2019-05-23T17:10:06.739Z,33.30
2019-05-23T17:12:42.284Z,33.10
2019-05-23T17:15:41.729Z,32.70
2019-05-23T17:18:31.097Z,33.90
2019-05-23T17:21:18.297Z,33.60
2019-05-23T17:24:07.979Z,34.00
2019-05-23T17:26:55.383Z,34.10
2019-05-23T17:29:48.911Z,33.20
2019-05-23T17:32:34.687Z,32.60
2019-05-23T17:35:20.564Z,33.50
2019-05-23T17:38:05.770Z,33.30
2019-05-23T17:40:51.740Z,33.50
2019-05-23T17:43:36.861Z,33.00
2019-05-23T17:46:22.180Z,33.10
2019-05-23T17:49:07.301Z,33.50
2019-05-23T17:51:52.548Z,33.50
2019-05-23T17:54:38.817Z,35.10
2019-05-23T17:57:24.134Z,35.10
2019-05-23T18:00:11.895Z,34.50
2019-05-23T18:02:57.482Z,34.80
2019-05-23T18:05:42.293Z,34.20
2019-05-23T18:08:28.809Z,34.50
2019-05-23T18:11:15.149Z,35.10
2019-05-23T18:14:00.814Z,35.90
2019-05-23T18:16:45.849Z,35.80
2019-05-23T18:19:31.363Z,36.30
2019-05-23T18:22:17.479Z,38.00
2019-05-23T18:25:04.382Z,40.10
2019-05-23T18:27:50.056Z,38.50
2019-05-23T18:30:49.153Z,39.20
2019-05-23T18:33:34.546Z,40.00
2019-05-23T18:36:20.030Z,41.80
2019-05-23T18:39:09.548Z,42.00
2019-05-23T18:41:54.342Z,41.20
2019-05-23T18:44:40.176Z,42.80
2019-05-23T18:47:33.119Z,44.00
2019-05-23T18:50:20.531Z,47.10
2019-05-23T18:53:05.935Z,48.10
2019-05-23T18:55:51.624Z,49.30
2019-05-23T18:58:36.756Z,52.80
2019-05-23T19:01:23.906Z,55.10
2019-05-23T19:04:09.117Z,55.30
2019-05-23T19:06:54.705Z,54.30
2019-05-23T19:09:40.202Z,54.90
2019-05-23T19:12:25.976Z,61.00
2019-05-23T19:15:12.193Z,62.10
2019-05-23T19:17:57.303Z,62.00
2019-05-23T19:20:42.409Z,62.50
2019-05-23T19:23:27.517Z,65.10
2019-05-23T19:26:14.197Z,68.00
2019-05-23T19:28:59.635Z,67.90
2019-05-23T19:31:45.127Z,70.30
2019-05-23T19:34:29.818Z,73.10
2019-05-23T19:37:15.212Z,73.50
2019-05-23T19:40:01.676Z,73.60
2019-05-23T19:42:46.468Z,76.50
2019-05-23T19:45:32.242Z,74.90
2019-05-23T19:48:18.634Z,75.70
2019-05-23T19:51:05.265Z,77.90
2019-05-23T19:53:50.668Z,76.50
2019-05-23T19:56:36.519Z,78.10
2019-05-23T19:59:21.469Z,77.30
2019-05-23T20:02:08.413Z,77.90
2019-05-23T20:04:56.007Z,77.60
2019-05-23T20:07:41.313Z,78.00
2019-05-23T20:10:27.149Z,79.20
2019-05-23T20:13:12.918Z,80.10
2019-05-23T20:15:58.049Z,81.80
2019-05-23T20:18:43.218Z,81.60
2019-05-23T20:21:28.646Z,82.70
2019-05-23T20:24:13.625Z,81.30
2019-05-23T20:26:58.947Z,82.00
2019-05-23T20:29:43.821Z,84.00
2019-05-23T20:32:28.479Z,83.70
2019-05-23T20:35:13.952Z,85.00
2019-05-23T20:37:58.771Z,84.90
2019-05-23T20:40:43.993Z,84.40
2019-05-23T20:43:29.203Z,84.20
2019-05-23T20:46:14.734Z,84.60
2019-05-23T20:48:59.625Z,85.30
2019-05-23T20:51:45.065Z,86.20
2019-05-23T20:54:33.307Z,84.70
2019-05-23T20:57:18.181Z,86.30
2019-05-23T21:00:08.119Z,87.60
2019-05-23T21:02:53.911Z,89.40
2019-05-23T21:05:39.470Z,88.30
2019-05-23T21:08:24.893Z,87.20
2019-05-23T21:11:10.102Z,87.10
2019-05-23T21:13:55.014Z,88.80
2019-05-23T21:16:40.159Z,88.90
2019-05-23T21:19:25.290Z,88.10
2019-05-23T21:22:10.400Z,88.50
2019-05-23T21:24:55.629Z,89.30
2019-05-23T21:27:40.718Z,89.50
2019-05-23T21:30:25.961Z,89.30
2019-05-23T21:33:10.815Z,89.00
2019-05-23T21:35:55.811Z,90.00
2019-05-23T21:38:40.700Z,90.10
2019-05-23T21:41:25.961Z,89.20
2019-05-23T21:44:10.644Z,89.50
2019-05-23T21:46:55.514Z,90.20
2019-05-23T21:49:40.217Z,90.80
2019-05-23T21:52:26.026Z,90.50
2019-05-23T21:55:14.651Z,90.10
2019-05-23T21:57:59.922Z,89.90
2019-05-23T22:01:05.637Z,90.90
2019-05-23T22:04:00.414Z,90.80
2019-05-23T22:06:46.931Z,90.50
2019-05-23T22:09:33.237Z,90.60
2019-05-23T22:12:18.537Z,90.70
2019-05-23T22:15:05.262Z,91.70
2019-05-23T22:17:50.462Z,91.70
2019-05-23T22:20:35.242Z,91.70
2019-05-23T22:23:20.289Z,91.80
2019-05-23T22:26:05.362Z,91.90
2019-05-23T22:28:50.806Z,91.50
2019-05-23T22:31:36.066Z,91.50
2019-05-23T22:34:25.690Z,91.50
2019-05-23T22:37:12.557Z,91.40
2019-05-23T22:39:57.919Z,91.20
2019-05-23T22:42:43.025Z,91.30
2019-05-23T22:45:29.321Z,91.00
2019-05-23T22:48:14.047Z,91.00
2019-05-23T22:50:58.934Z,91.10
2019-05-23T22:53:44.095Z,91.30
2019-05-23T22:56:28.874Z,91.60
2019-05-23T22:59:13.741Z,91.70
2019-05-23T23:01:58.727Z,91.60
2019-05-23T23:04:44.239Z,92.20
2019-05-23T23:07:29.713Z,91.70
2019-05-23T23:10:14.957Z,91.50
2019-05-23T23:13:00.110Z,91.60
2019-05-23T23:15:45.065Z,92.80
2019-05-23T23:18:30.126Z,92.50
2019-05-23T23:21:14.965Z,92.20
2019-05-23T23:23:59.818Z,92.20
2019-05-23T23:26:44.582Z,92.30
2019-05-23T23:29:30.519Z,92.70
2019-05-23T23:32:15.285Z,92.50
2019-05-23T23:35:00.155Z,92.30
2019-05-23T23:37:44.898Z,92.40
2019-05-23T23:40:29.741Z,92.30
2019-05-23T23:43:14.530Z,92.00
2019-05-23T23:46:18.200Z,92.10
2019-05-23T23:49:21.316Z,92.50
2019-05-23T23:52:24.650Z,92.10
2019-05-23T23:55:28.222Z,92.30
2019-05-23T23:58:14.853Z,92.30
